Time;durP1;ratioP1;P1;durP2;ratioP2;P2;SDS_P1;SDS_P2;PMS_P1;PMS_P2;Temp;Humidity;BMP_temperature;BMP_pressure;BME280_temperature;BME280_humidity;BME280_pressure;Samples;Min_cycle;Max_cycle;Signal;HPM_P1;HPM_P2
2022/06/05 00:00:02;;;;;;;;;12.67;12.33;;;;;20.77;67.38;100992.91;5055425;28;45601;-67
2022/06/05 00:02:41;;;;;;;;;14.33;11.00;;;;;20.84;67.31;100981.09;5058289;28;46176;-67
2022/06/05 00:05:14;;;;;;;;;14.67;12.00;;;;;20.85;67.29;100951.75;5056281;28;45416;-68
2022/06/05 00:07:51;;;;;;;;;17.33;16.00;;;;;20.86;67.42;100955.28;5038425;28;45864;-67
2022/06/05 00:10:26;;;;;;;;;12.33;11.67;;;;;20.82;67.92;100964.31;5038908;28;45447;-67
2022/06/05 00:13:10;;;;;;;;;14.00;13.00;;;;;20.80;67.74;100985.66;5056568;28;46184;-68
2022/06/05 00:15:36;;;;;;;;;14.33;13.33;;;;;20.72;67.52;100964.66;5056325;28;45424;-68
2022/06/05 00:18:01;;;;;;;;;11.00;11.00;;;;;20.75;67.37;100953.88;5056426;28;45517;-68
2022/06/05 00:20:27;;;;;;;;;15.67;15.00;;;;;20.83;67.38;100966.03;5055365;28;45326;-67
2022/06/05 00:22:53;;;;;;;;;18.67;15.67;;;;;20.79;67.84;100978.59;5055576;28;46340;-69
2022/06/05 00:25:18;;;;;;;;;16.33;13.67;;;;;20.75;67.93;100967.19;5056294;28;45465;-69
2022/06/05 00:28:06;;;;;;;;;11.00;11.00;;;;;20.82;67.59;100972.31;5056109;28;45177;-71
2022/06/05 00:31:08;;;;;;;;;14.33;13.33;;;;;20.86;67.33;100964.16;5056499;28;45542;-70
2022/06/05 00:33:40;;;;;;;;;11.67;10.67;;;;;20.93;66.96;100959.47;5056255;28;45599;-69
2022/06/05 05:43:42;;;;;;;;;21.33;20.00;;;;;18.85;75.20;100902.53;5115089;27;45508;-72
2022/06/05 05:46:10;;;;;;;;;13.67;13.33;;;;;18.92;75.23;100868.72;5115906;27;45493;-75
2022/06/05 05:48:36;;;;;;;;;21.67;18.33;;;;;19.28;74.78;100887.94;5117814;27;45214;-77
2022/06/05 05:51:02;;;;;;;;;16.33;16.33;;;;;19.62;73.54;100891.28;5113438;27;46588;-76
2022/06/05 05:53:28;;;;;;;;;16.67;15.00;;;;;20.02;72.68;100921.88;5114624;27;45287;-81
2022/06/05 05:55:53;;;;;;;;;14.67;13.33;;;;;20.19;72.22;100916.84;5114513;27;45449;-77
2022/06/05 05:58:22;;;;;;;;;10.33;10.33;;;;;20.25;71.31;100902.47;5114290;27;45581;-75
2022/06/05 06:00:47;;;;;;;;;9.33;9.33;;;;;19.47;70.90;100760.72;5109522;27;46208;-75
2022/06/05 06:03:13;;;;;;;;;11.33;10.67;;;;;20.48;70.48;100905.19;5112499;27;45527;-74
2022/06/05 06:05:38;;;;;;;;;12.67;12.67;;;;;20.41;69.43;100878.88;5114160;27;45756;-75
2022/06/05 06:08:04;;;;;;;;;13.67;12.67;;;;;20.59;69.77;100901.28;5112380;27;45535;-76
2022/06/05 06:10:30;;;;;;;;;11.67;11.00;;;;;20.61;69.56;100902.09;5114360;27;46743;-76
2022/06/05 06:12:55;;;;;;;;;10.00;9.00;;;;;20.74;69.53;100904.25;5111147;27;45432;-77
2022/06/05 06:15:21;;;;;;;;;13.00;9.33;;;;;20.62;68.99;100875.44;5116220;27;45423;-77
2022/06/05 06:17:47;;;;;;;;;13.33;12.33;;;;;20.88;68.67;100908.16;5114757;27;45336;-77
2022/06/05 06:20:12;;;;;;;;;12.33;12.33;;;;;20.92;68.22;100910.66;5129331;27;46805;-74
2022/06/05 06:22:41;;;;;;;;;11.33;10.67;;;;;20.95;68.27;100893.69;5114290;27;45382;-76
2022/06/05 06:25:07;;;;;;;;;13.33;11.00;;;;;20.96;68.46;100887.44;5114021;27;45347;-76
2022/06/05 06:27:33;;;;;;;;;16.00;14.67;;;;;20.94;68.03;100876.84;5113911;27;45364;-75
2022/06/05 06:29:59;;;;;;;;;15.67;13.67;;;;;20.96;68.48;100879.47;5112180;27;45531;-77
2022/06/05 06:32:25;;;;;;;;;12.67;9.67;;;;;20.99;67.95;100886.47;5113097;27;45504;-76
2022/06/05 06:34:51;;;;;;;;;17.00;14.33;;;;;21.02;67.63;100896.97;5128029;27;45388;-77
2022/06/05 06:37:40;;;;;;;;;15.00;13.67;;;;;20.86;67.68;100894.06;5114071;27;45354;-76
2022/06/05 06:40:09;;;;;;;;;16.33;15.00;;;;;20.48;68.16;100840.47;5103733;27;46047;-76
2022/06/05 06:42:35;;;;;;;;;13.67;13.00;;;;;20.69;68.24;100874.28;5113692;27;45444;-78
2022/06/05 06:45:00;;;;;;;;;14.00;13.00;;;;;20.56;68.32;100825.09;5113400;27;45400;-78
2022/06/05 06:47:26;;;;;;;;;10.67;9.67;;;;;20.98;68.01;100880.28;5126869;27;45320;-77
2022/06/05 06:49:51;;;;;;;;;10.67;10.00;;;;;20.77;67.34;100822.53;5113525;27;45574;-76
2022/06/05 06:52:18;;;;;;;;;11.00;10.33;;;;;20.97;67.36;100849.22;5100055;27;45436;-77
2022/06/05 06:54:48;;;;;;;;;14.67;14.00;;;;;20.98;67.20;100856.31;5100429;27;45376;-75
2022/06/05 06:57:15;;;;;;;;;11.00;10.67;;;;;21.00;67.45;100862.44;5097540;27;45361;-72
2022/06/05 06:59:41;;;;;;;;;11.00;10.33;;;;;21.02;67.58;100875.69;5099668;27;45973;-77
2022/06/05 07:02:06;;;;;;;;;9.00;9.00;;;;;21.05;67.39;100851.63;5099495;27;45455;-78
2022/06/05 07:04:35;;;;;;;;;12.67;9.33;;;;;21.16;67.04;100847.56;5099450;27;45515;-75
2022/06/05 07:07:01;;;;;;;;;9.67;9.67;;;;;21.34;66.82;100861.09;5099722;27;45735;-77
2022/06/05 07:09:27;;;;;;;;;10.00;10.00;;;;;21.21;66.47;100817.22;5099565;27;45521;-77
2022/06/05 07:11:53;;;;;;;;;10.00;8.00;;;;;21.54;65.92;100855.81;5099218;27;45907;-73
2022/06/05 07:14:19;;;;;;;;;9.00;8.00;;;;;21.52;65.72;100823.06;5099465;27;45431;-76
2022/06/05 07:16:47;;;;;;;;;9.00;9.00;;;;;21.91;65.42;100856.94;5099606;27;45543;-73
2022/06/05 07:19:14;;;;;;;;;8.00;7.00;;;;;22.08;64.86;100850.88;5098730;27;45593;-75
2022/06/05 07:21:39;;;;;;;;;8.00;8.00;;;;;22.39;64.04;100854.88;5098723;27;45479;-74
2022/06/05 07:24:09;;;;;;;;;13.67;9.00;;;;;22.39;63.61;100846.84;5093656;27;45421;-76
2022/06/05 07:26:34;;;;;;;;;7.00;6.33;;;;;22.20;63.91;100821.00;5094611;27;45484;-77
2022/06/05 07:29:01;;;;;;;;;8.67;8.67;;;;;22.49;63.75;100852.63;5098310;27;45944;-77
2022/06/05 07:31:29;;;;;;;;;8.00;7.00;;;;;22.69;63.37;100844.59;5098770;27;45188;-76
2022/06/05 07:33:57;;;;;;;;;11.67;9.67;;;;;22.62;62.34;100798.63;5098979;27;45458;-77
2022/06/05 07:36:29;;;;;;;;;13.00;11.67;;;;;23.10;62.14;100846.25;5099364;27;45526;-73
2022/06/05 07:38:56;;;;;;;;;9.00;9.00;;;;;23.21;61.49;100839.44;5098080;27;45606;-77
2022/06/05 07:41:23;;;;;;;;;9.00;8.67;;;;;23.34;61.38;100846.84;5095230;27;45506;-76
2022/06/05 07:43:49;;;;;;;;;6.67;6.00;;;;;23.16;61.38;100804.09;5099135;27;45471;-76
2022/06/05 07:46:16;;;;;;;;;7.00;7.00;;;;;23.36;60.89;100837.81;5099385;27;45561;-78
2022/06/05 07:48:41;;;;;;;;;8.00;7.33;;;;;23.42;61.08;100832.19;5101016;27;46170;-77
2022/06/05 07:56:40;;;;;;;;;7.00;7.00;;;;;23.23;59.56;100738.72;5099818;27;45478;-75
2022/06/05 07:59:07;;;;;;;;;6.67;6.67;;;;;24.01;59.28;100850.59;5097992;27;46480;-76
2022/06/05 08:01:33;;;;;;;;;10.00;8.00;;;;;24.10;58.93;100856.34;5098523;27;45542;-76
2022/06/05 08:03:59;;;;;;;;;5.67;5.67;;;;;23.80;58.12;100786.59;5098089;27;45521;-75
2022/06/05 08:06:25;;;;;;;;;7.33;7.33;;;;;24.14;58.33;100846.34;5097328;27;45393;-75
2022/06/05 08:08:50;;;;;;;;;7.00;5.00;;;;;23.66;57.83;100771.25;5098981;27;45511;-73
2022/06/05 08:11:16;;;;;;;;;8.00;6.67;;;;;23.62;57.80;100758.97;5097852;27;45536;-75
2022/06/05 08:13:41;;;;;;;;;5.67;5.67;;;;;23.56;57.65;100769.13;5099056;27;45346;-76
2022/06/05 08:16:07;;;;;;;;;7.33;6.00;;;;;23.71;57.84;100825.34;5114700;27;45294;-73
2022/06/05 08:18:33;;;;;;;;;6.00;6.00;;;;;23.58;57.52;100801.97;5097595;27;45468;-72
2022/06/05 08:20:59;;;;;;;;;8.00;8.00;;;;;23.74;58.02;100840.41;5097620;27;45372;-73
2022/06/05 08:23:25;;;;;;;;;5.67;5.67;;;;;23.37;58.34;100793.25;5113969;27;45576;-72
2022/06/05 08:25:53;;;;;;;;;6.67;6.67;;;;;22.99;58.02;100742.59;5093287;27;45327;-74
2022/06/05 08:28:19;;;;;;;;;6.00;6.00;;;;;23.09;58.38;100775.94;5090128;27;46090;-75
2022/06/05 08:30:45;;;;;;;;;7.00;6.00;;;;;23.53;58.72;100870.88;5114062;27;45352;-75
2022/06/05 08:33:11;;;;;;;;;5.00;5.00;;;;;23.17;58.70;100831.66;5098720;27;45382;-75
2022/06/05 08:35:38;;;;;;;;;6.00;6.00;;;;;22.77;59.08;100783.66;5098646;27;45226;-75
2022/06/05 08:44:04;;;;;;;;;7.00;7.00;;;;;23.24;59.41;100871.34;5098574;27;45308;-75
2022/06/05 08:46:40;;;;;;;;;8.33;8.33;;;;;23.07;59.54;100840.13;5098431;27;45308;-75
2022/06/05 08:49:11;;;;;;;;;5.00;5.00;;;;;23.11;59.59;100872.00;5097545;27;46323;-74
2022/06/05 08:52:03;;;;;;;;;4.33;4.33;;;;;23.11;58.94;100875.53;5097928;27;45558;-77
2022/06/05 08:55:11;;;;;;;;;5.00;5.00;;;;;22.98;58.97;100893.09;5097622;27;45368;-76
2022/06/05 08:57:45;;;;;;;;;5.00;5.00;;;;;22.89;59.02;100898.84;5085696;27;45514;-74
2022/06/05 09:00:12;;;;;;;;;7.00;6.00;;;;;22.78;58.79;100886.88;5097740;27;45490;-75
2022/06/05 09:02:43;;;;;;;;;5.00;5.00;;;;;22.54;59.29;100855.97;5097861;27;45243;-73
2022/06/05 09:05:34;;;;;;;;;7.00;7.00;;;;;22.70;59.43;100888.16;5096443;27;45371;-76
2022/06/05 09:08:15;;;;;;;;;6.00;6.00;;;;;22.67;59.16;100894.50;5097926;27;45545;-76
2022/06/05 09:10:45;;;;;;;;;6.67;5.67;;;;;22.68;59.35;100888.22;5097736;27;45540;-76
2022/06/05 09:13:35;;;;;;;;;6.00;6.00;;;;;22.69;59.52;100894.44;5097633;27;45407;-74
2022/06/05 09:16:05;;;;;;;;;8.00;6.00;;;;;22.63;59.55;100880.41;5097923;27;45297;-75
2022/06/05 09:18:36;;;;;;;;;6.00;6.00;;;;;22.06;59.56;100790.53;5113946;27;45564;-76
2022/06/05 09:21:21;;;;;;;;;7.67;6.33;;;;;22.32;59.51;100848.94;5113856;27;46831;-75
2022/06/05 09:23:46;;;;;;;;;6.67;6.00;;;;;22.65;59.79;100913.25;5097500;27;45524;-75
2022/06/05 09:26:32;;;;;;;;;5.00;5.00;;;;;22.61;59.99;100932.16;5089002;27;45558;-76
2022/06/05 09:28:57;;;;;;;;;8.33;8.00;;;;;22.58;60.41;100930.50;5094413;27;45599;-75
2022/06/05 09:31:56;;;;;;;;;5.00;5.00;;;;;22.33;60.56;100909.38;5097354;27;45746;-74
2022/06/05 09:34:57;;;;;;;;;7.33;7.33;;;;;22.52;60.66;100949.47;5070865;27;46176;-73
2022/06/05 09:37:25;;;;;;;;;7.67;7.67;;;;;22.34;60.59;100927.13;5098658;27;45408;-77
2022/06/05 09:40:16;;;;;;;;;6.67;6.67;;;;;22.01;60.88;100873.41;5098327;27;45422;-78
2022/06/05 09:43:10;;;;;;;;;9.00;7.67;;;;;22.56;62.03;100963.53;5097203;27;46136;-78
2022/06/05 09:45:54;;;;;;;;;7.00;7.00;;;;;22.59;61.49;100947.38;5097768;27;45365;-76
2022/06/05 09:48:37;;;;;;;;;24.33;24.33;;;;;22.65;61.17;100953.31;5087770;27;45511;-78
2022/06/05 09:51:12;;;;;;;;;15.00;14.67;;;;;22.26;61.57;100867.00;5098383;27;45482;-76
2022/06/05 09:53:45;;;;;;;;;12.00;10.00;;;;;22.76;61.18;100952.84;5097088;27;45519;-77
2022/06/05 09:56:17;;;;;;;;;13.33;13.33;;;;;22.76;61.42;100950.16;5096899;27;45392;-77
2022/06/05 09:59:13;;;;;;;;;8.67;8.67;;;;;22.78;61.49;100956.31;5096250;27;45322;-80
2022/06/05 10:01:54;;;;;;;;;8.00;8.00;;;;;22.64;61.26;100929.38;5097634;27;45380;-73
2022/06/05 10:04:21;;;;;;;;;11.00;9.33;;;;;22.38;61.19;100887.84;5096436;27;46714;-75
2022/06/05 10:07:03;;;;;;;;;11.00;10.00;;;;;22.71;61.42;100967.31;5096635;27;45252;-74
2022/06/05 10:09:31;;;;;;;;;11.00;10.67;;;;;22.15;61.30;100880.81;5096975;27;45483;-72
2022/06/05 10:12:10;;;;;;;;;8.67;8.67;;;;;21.97;61.93;100839.78;5095881;27;45405;-78
2022/06/05 10:15:02;;;;;;;;;8.33;8.33;;;;;22.05;61.76;100853.69;5097221;27;46748;-78
2022/06/05 10:17:31;;;;;;;;;10.00;10.00;;;;;22.90;61.26;100978.91;5097096;27;45496;-80
2022/06/05 10:20:33;;;;;;;;;13.00;9.00;;;;;23.04;60.02;100973.84;5097105;27;45453;-78
2022/06/05 10:23:22;;;;;;;;;15.67;13.33;;;;;23.11;59.60;100978.88;5109827;27;45397;-78
2022/06/05 10:25:56;;;;;;;;;11.67;11.33;;;;;23.13;59.47;100975.19;5092501;27;47929;-79
2022/06/05 10:28:30;;;;;;;;;12.33;11.00;;;;;23.21;59.65;100973.06;5087893;27;45374;-77
2022/06/05 10:31:24;;;;;;;;;27.67;24.33;;;;;23.22;59.36;100955.22;5116109;27;45328;-75
2022/06/05 10:34:14;;;;;;;;;56.00;44.75;;;;;23.40;58.67;100980.22;5100618;27;45416;-76
2022/06/05 10:36:55;;;;;;;;;129.33;115.00;;;;;23.41;58.25;100976.56;5100216;27;46111;-77
2022/06/05 10:39:42;;;;;;;;;101.25;84.25;;;;;23.43;58.72;100980.06;5100414;27;45542;-77
2022/06/05 10:42:29;;;;;;;;;76.50;62.00;;;;;23.51;58.12;100977.84;5100396;27;45397;-73
2022/06/05 10:45:13;;;;;;;;;41.33;35.67;;;;;23.59;57.60;100973.03;5094060;27;45526;-73
2022/06/05 10:47:57;;;;;;;;;31.67;27.67;;;;;23.61;57.15;100965.81;5095718;27;46490;-77
2022/06/05 10:50:37;;;;;;;;;24.00;24.00;;;;;23.48;57.53;100962.84;5101396;27;45341;-76
2022/06/05 10:53:12;;;;;;;;;20.67;19.67;;;;;23.50;57.54;100977.00;5102092;27;45601;-79
2022/06/05 10:55:48;;;;;;;;;19.67;19.33;;;;;23.42;57.71;100964.94;5104235;27;45466;-77
2022/06/05 10:58:51;;;;;;;;;16.33;16.00;;;;;23.53;57.42;100993.84;5102097;27;45698;-77
2022/06/05 11:01:20;;;;;;;;;15.00;15.00;;;;;23.57;57.35;100992.75;5080918;27;45498;-79
2022/06/05 11:04:12;;;;;;;;;14.33;13.33;;;;;23.39;57.43;100959.75;5102725;27;45565;-79
2022/06/05 11:06:47;;;;;;;;;16.00;15.00;;;;;23.66;56.64;100990.50;5122515;27;45520;-79
2022/06/05 11:09:25;;;;;;;;;17.33;16.67;;;;;23.68;56.46;100993.97;5106239;27;45894;-76
2022/06/05 11:15:24;;;;;;;;;15.67;13.33;;;;;23.57;56.08;100958.00;5104968;27;45420;-76
2022/06/05 11:18:24;;;;;;;;;13.67;12.00;;;;;23.75;56.66;100996.38;5105040;27;45448;-77
2022/06/05 11:20:54;;;;;;;;;16.00;13.67;;;;;23.61;56.41;100988.97;5101912;27;46318;-78
2022/06/05 11:23:24;;;;;;;;;14.00;14.00;;;;;23.56;56.85;100989.19;5106808;27;45337;-74
2022/06/05 11:26:11;;;;;;;;;16.00;14.00;;;;;23.61;57.02;101000.56;5096392;27;45954;-76
2022/06/05 11:28:52;;;;;;;;;16.00;15.00;;;;;23.67;56.77;101005.59;5103400;27;45463;-75
2022/06/05 11:31:36;;;;;;;;;16.33;13.33;;;;;23.73;56.25;100995.53;5106455;27;45428;-72
2022/06/05 11:34:12;;;;;;;;;13.67;13.33;;;;;23.71;56.19;100985.78;5104614;27;45312;-73
2022/06/05 11:36:43;;;;;;;;;17.33;16.00;;;;;23.66;56.03;100995.00;5100465;27;45504;-71
2022/06/05 11:39:36;;;;;;;;;15.00;12.67;;;;;23.52;56.71;101006.34;5101101;27;45490;-73
2022/06/05 11:42:19;;;;;;;;;12.67;12.00;;;;;23.38;56.95;101009.66;5098962;27;46050;-73
2022/06/05 11:44:50;;;;;;;;;15.00;15.00;;;;;23.26;57.02;101013.78;5099026;27;45345;-74
2022/06/05 11:47:32;;;;;;;;;13.33;13.33;;;;;23.15;57.08;101007.19;5099432;27;45450;-73
2022/06/05 11:50:49;;;;;;;;;17.00;17.00;;;;;23.05;57.42;101030.81;5101728;27;45434;-72
2022/06/05 11:53:52;;;;;;;;;15.33;15.00;;;;;22.90;57.60;101037.69;5085255;27;45410;-73
2022/06/05 11:56:32;;;;;;;;;14.00;14.00;;;;;22.82;57.78;101039.81;5098785;27;45667;-71
2022/06/05 11:59:16;;;;;;;;;13.67;13.67;;;;;22.73;58.36;101037.53;5099635;27;45328;-74
2022/06/05 12:01:50;;;;;;;;;16.67;14.00;;;;;22.72;57.76;101039.34;5085694;27;45523;-74
2022/06/05 12:04:15;;;;;;;;;15.67;14.00;;;;;22.76;58.27;101035.59;5098881;27;45951;-73
2022/06/05 12:06:49;;;;;;;;;16.00;14.00;;;;;22.78;57.93;101035.53;5098651;27;45279;-76
2022/06/05 12:09:23;;;;;;;;;17.00;15.33;;;;;22.63;57.29;100991.69;5099398;27;45307;-74
2022/06/05 12:12:09;;;;;;;;;12.33;12.00;;;;;23.01;57.37;101043.41;5097674;27;45540;-74
2022/06/05 12:15:01;;;;;;;;;15.33;13.33;;;;;22.71;56.72;100978.88;5098566;27;45507;-75
2022/06/05 12:17:39;;;;;;;;;13.00;13.00;;;;;23.17;56.37;101045.41;5069853;27;45487;-73
2022/06/05 12:20:30;;;;;;;;;15.33;14.00;;;;;23.26;56.83;101040.50;5098642;27;45380;-74
2022/06/05 12:23:25;;;;;;;;;15.33;14.00;;;;;23.19;56.10;101017.69;5098998;27;45580;-74
2022/06/05 12:25:58;;;;;;;;;14.00;12.67;;;;;22.98;56.36;100981.22;5093098;27;45510;-74
2022/06/05 12:29:04;;;;;;;;;12.67;12.67;;;;;23.31;56.06;101056.31;5090690;27;45369;-75
2022/06/05 12:31:38;;;;;;;;;16.67;16.00;;;;;23.21;56.56;101060.38;5055640;28;45527;-73
2022/06/05 12:34:12;;;;;;;;;17.00;15.00;;;;;23.11;56.65;101059.88;5092489;27;45496;-74
2022/06/05 12:36:43;;;;;;;;;16.33;15.33;;;;;23.05;56.77;101062.84;5097004;27;45488;-74
2022/06/05 12:39:44;;;;;;;;;12.00;12.00;;;;;23.04;56.64;101061.09;5098442;27;45247;-74
2022/06/05 12:42:33;;;;;;;;;12.33;11.67;;;;;23.10;56.73;101070.66;5088711;27;45427;-76
2022/06/05 12:45:26;;;;;;;;;16.33;14.00;;;;;22.98;56.66;101062.25;5092414;27;45402;-73
2022/06/05 12:48:14;;;;;;;;;14.00;14.00;;;;;23.08;56.45;101079.59;5106762;27;45222;-75
2022/06/05 12:50:59;;;;;;;;;13.00;13.00;;;;;23.14;56.05;101082.97;5085120;27;45247;-76
2022/06/05 12:53:43;;;;;;;;;16.00;15.33;;;;;23.15;56.27;101084.69;5095672;27;45408;-73
2022/06/05 12:56:26;;;;;;;;;13.00;13.00;;;;;22.47;55.88;100978.16;5097781;27;45395;-74
2022/06/05 12:59:05;;;;;;;;;11.00;11.00;;;;;23.13;56.01;101076.72;5099045;27;45393;-77
2022/06/05 13:01:58;;;;;;;;;11.00;11.00;;;;;23.18;55.76;101074.75;5097520;27;45361;-73
2022/06/05 13:04:50;;;;;;;;;11.33;11.33;;;;;23.50;55.34;101083.06;5099819;27;45430;-75
2022/06/05 13:07:55;;;;;;;;;16.33;12.00;;;;;23.69;54.24;101081.25;5114537;27;45360;-75
2022/06/05 13:10:30;;;;;;;;;13.67;13.33;;;;;23.69;53.23;101059.88;5098125;27;45420;-75
2022/06/05 13:13:09;;;;;;;;;14.00;14.00;;;;;24.05;53.36;101091.16;5098387;27;45455;-73
2022/06/05 13:15:45;;;;;;;;;13.33;11.33;;;;;24.03;53.22;101060.06;5098674;27;45428;-75
2022/06/05 13:18:41;;;;;;;;;14.33;14.33;;;;;23.99;52.69;101005.88;5098763;27;45218;-74
2022/06/05 13:21:25;;;;;;;;;13.33;13.33;;;;;24.72;51.86;101094.13;5084660;27;45533;-73
2022/06/05 13:24:18;;;;;;;;;12.00;12.00;;;;;24.96;51.24;101092.88;5106072;27;45356;-73
2022/06/05 13:27:02;;;;;;;;;10.33;10.33;;;;;25.18;50.84;101079.22;5093322;27;45323;-75
2022/06/05 13:30:06;;;;;;;;;12.00;10.00;;;;;25.38;50.52;101091.53;5084723;27;45358;-72
2022/06/05 13:32:38;;;;;;;;;11.00;11.00;;;;;25.17;49.91;101029.22;5098001;27;45315;-74
2022/06/05 13:35:36;;;;;;;;;10.33;10.00;;;;;25.59;49.75;101091.31;5098151;27;45312;-74
2022/06/05 13:38:42;;;;;;;;;12.00;11.67;;;;;25.67;48.85;101096.25;5097959;27;45468;-74
2022/06/05 13:41:31;;;;;;;;;13.67;13.00;;;;;25.41;48.46;101036.00;5097775;27;45462;-74
2022/06/05 13:44:15;;;;;;;;;11.00;11.00;;;;;25.53;48.57;101064.81;5097807;27;46648;-74
2022/06/05 13:47:20;;;;;;;;;9.33;9.00;;;;;25.74;48.34;101095.81;5099658;27;45438;-74
2022/06/05 13:49:45;;;;;;;;;9.00;9.00;;;;;25.81;47.96;101097.19;5088017;27;45445;-75
2022/06/05 13:52:23;;;;;;;;;9.67;9.67;;;;;25.77;48.20;101101.03;5098091;27;45461;-73
2022/06/05 13:55:23;;;;;;;;;8.33;8.33;;;;;25.60;47.84;101090.34;5098089;27;45873;-75
2022/06/05 13:58:03;;;;;;;;;7.00;7.00;;;;;25.23;48.58;101041.44;5099415;27;45238;-76
2022/06/05 14:00:36;;;;;;;;;10.33;9.00;;;;;25.03;48.31;101017.50;5099766;27;45352;-74
2022/06/05 14:03:08;;;;;;;;;9.00;9.00;;;;;25.25;48.44;101097.63;5102625;27;45423;-73
2022/06/05 14:05:38;;;;;;;;;8.00;8.00;;;;;25.18;48.75;101097.13;5102871;27;45948;-74
2022/06/05 14:08:21;;;;;;;;;9.00;7.67;;;;;25.11;48.77;101101.91;5102203;27;45351;-75
2022/06/05 14:10:58;;;;;;;;;7.67;7.67;;;;;24.93;49.44;101102.84;5101304;27;45469;-74
2022/06/05 14:13:25;;;;;;;;;10.00;8.67;;;;;24.92;49.56;101107.34;5101137;27;45404;-73
2022/06/05 14:15:55;;;;;;;;;9.67;9.67;;;;;24.68;49.83;101089.88;5101054;27;45447;-71
2022/06/05 14:18:43;;;;;;;;;10.00;10.00;;;;;24.75;49.81;101112.72;5101092;27;45452;-73
2022/06/05 14:21:20;;;;;;;;;9.33;9.33;;;;;24.70;50.33;101109.41;5101261;27;45450;-75
2022/06/05 14:23:48;;;;;;;;;9.33;9.33;;;;;24.74;50.22;101102.94;5101433;27;45519;-76
2022/06/05 14:26:19;;;;;;;;;11.00;10.00;;;;;24.89;49.84;101107.53;5092160;27;45363;-74
2022/06/05 14:28:46;;;;;;;;;13.67;11.00;;;;;24.86;49.78;101094.28;5109057;27;45293;-76
2022/06/05 14:31:20;;;;;;;;;8.67;8.67;;;;;24.79;49.54;101074.09;5100786;27;45444;-73
2022/06/05 14:33:56;;;;;;;;;9.67;9.67;;;;;24.82;49.55;101071.28;5100935;27;45348;-77
2022/06/05 14:36:40;;;;;;;;;12.67;11.67;;;;;25.11;49.35;101095.69;5101102;27;46087;-75
2022/06/05 14:39:28;;;;;;;;;10.00;10.00;;;;;25.29;48.91;101099.22;5100821;27;45483;-74
2022/06/05 14:42:17;;;;;;;;;11.67;11.67;;;;;25.38;48.63;101112.97;5100985;27;46029;-73
2022/06/05 14:45:03;;;;;;;;;10.67;9.33;;;;;25.28;47.94;101079.59;5100650;27;45255;-74
2022/06/05 14:47:42;;;;;;;;;8.67;8.67;;;;;25.54;48.43;101115.69;5100418;27;45550;-75
2022/06/05 14:50:19;;;;;;;;;8.33;8.33;;;;;25.56;47.67;101116.50;5100956;27;45323;-73
2022/06/05 14:53:00;;;;;;;;;8.67;8.67;;;;;25.80;47.25;101132.19;5100584;27;45771;-75
2022/06/05 14:58:37;;;;;;;;;9.50;9.25;;;;;25.87;46.75;101130.06;5102528;27;45430;-73
2022/06/05 15:01:20;;;;;;;;;11.00;10.00;;;;;25.90;46.61;101111.97;5100728;27;45478;-74
2022/06/05 15:04:04;;;;;;;;;11.00;9.00;;;;;25.83;46.91;101112.38;5099166;27;45558;-75
2022/06/05 15:06:35;;;;;;;;;7.33;7.33;;;;;25.82;46.97;101114.19;5100380;27;45495;-73
2022/06/05 15:09:15;;;;;;;;;10.00;9.67;;;;;25.85;47.12;101103.28;5099950;27;46139;-72
2022/06/05 15:11:47;;;;;;;;;7.50;7.50;;;;;25.97;46.89;101115.16;5100172;27;45560;-74
2022/06/05 15:14:40;;;;;;;;;7.75;7.75;;;;;26.06;46.28;101108.41;5099875;27;45403;-73
2022/06/05 15:17:18;;;;;;;;;9.25;7.25;;;;;26.14;45.98;101104.31;5115976;27;45540;-73
2022/06/05 15:19:45;;;;;;;;;9.00;8.00;;;;;26.17;45.92;101103.28;5099531;27;46203;-72
2022/06/05 15:22:42;;;;;;;;;9.00;8.67;;;;;26.19;45.79;101101.38;5099965;27;45454;-73
2022/06/05 15:25:23;;;;;;;;;7.50;7.50;;;;;26.17;46.14;101100.59;5100076;27;45679;-73
2022/06/05 15:27:59;;;;;;;;;7.75;7.75;;;;;26.06;46.17;101103.91;5099721;27;45337;-73
2022/06/05 15:30:31;;;;;;;;;8.67;8.33;;;;;26.01;45.77;101117.59;5099247;27;45701;-71
2022/06/05 15:33:09;;;;;;;;;9.50;9.00;;;;;26.00;45.58;101123.03;5099162;27;45447;-71
2022/06/05 15:35:58;;;;;;;;;7.00;7.00;;;;;25.66;45.83;101071.25;5097939;27;45591;-70
2022/06/05 15:38:37;;;;;;;;;7.75;7.75;;;;;25.79;45.77;101111.66;5099713;27;45479;-72
2022/06/05 15:41:36;;;;;;;;;6.00;6.00;;;;;25.69;46.28;101108.63;5099518;27;45361;-75
2022/06/05 15:44:09;;;;;;;;;9.00;8.00;;;;;25.56;46.17;101112.94;5099296;27;45435;-75
2022/06/05 15:46:53;;;;;;;;;13.00;13.00;;;;;25.42;46.68;101104.78;5099771;27;45317;-74
2022/06/05 15:49:37;;;;;;;;;7.67;7.67;;;;;25.29;46.94;101099.22;5098425;27;45471;-74
2022/06/05 15:52:45;;;;;;;;;9.00;8.33;;;;;25.16;46.99;101098.97;5099632;27;45237;-74
2022/06/05 15:55:20;;;;;;;;;8.00;8.00;;;;;24.96;46.89;101095.53;5093597;27;45376;-75
2022/06/05 15:58:18;;;;;;;;;7.67;7.67;;;;;24.90;47.34;101119.09;5099359;27;45459;-74
2022/06/05 16:01:08;;;;;;;;;8.33;7.00;;;;;24.80;49.29;101120.53;5099716;27;45357;-75
2022/06/05 16:03:49;;;;;;;;;7.00;7.00;;;;;24.71;50.89;101112.00;5086720;27;45448;-74
2022/06/05 16:06:33;;;;;;;;;7.00;7.00;;;;;24.55;50.98;101095.84;5098880;27;45354;-74
2022/06/05 16:09:26;;;;;;;;;9.00;8.00;;;;;24.72;52.36;101115.53;5099164;27;45502;-75
2022/06/05 16:12:13;;;;;;;;;9.67;8.33;;;;;24.76;50.47;101103.75;5099363;27;45515;-74
2022/06/05 16:14:54;;;;;;;;;7.67;7.33;;;;;24.93;49.48;101124.28;5098897;27;45487;-73
2022/06/05 16:17:28;;;;;;;;;9.00;7.67;;;;;24.96;49.87;101114.31;5098746;27;45505;-73
2022/06/05 16:20:18;;;;;;;;;8.33;7.00;;;;;25.04;49.17;101113.03;5099280;27;45486;-72
2022/06/05 16:22:49;;;;;;;;;7.00;7.00;;;;;25.09;49.32;101103.78;5099375;27;45376;-73
2022/06/05 16:25:31;;;;;;;;;7.00;7.00;;;;;25.07;49.26;101099.47;5098177;27;45419;-74
2022/06/05 16:28:06;;;;;;;;;7.00;7.00;;;;;25.21;48.38;101107.66;5099227;27;45361;-74
2022/06/05 16:30:46;;;;;;;;;7.00;7.00;;;;;24.97;48.65;101057.06;5099235;27;45318;-74
2022/06/05 16:33:30;;;;;;;;;5.75;5.75;;;;;25.32;48.19;101110.66;5099531;27;45402;-76
2022/06/05 16:38:57;;;;;;;;;7.00;7.00;;;;;25.14;48.42;101096.38;5100104;27;45480;-75
2022/06/05 16:41:25;;;;;;;;;8.33;8.33;;;;;25.07;48.55;101091.41;5098817;27;45409;-74
2022/06/05 16:43:58;;;;;;;;;7.67;7.67;;;;;25.17;48.73;101111.41;5098956;27;45456;-74
2022/06/05 16:46:39;;;;;;;;;7.00;7.00;;;;;25.14;48.78;101112.44;5098341;27;45919;-74
2022/06/05 16:49:08;;;;;;;;;7.00;7.00;;;;;25.04;48.48;101091.59;5099326;27;45484;-74
2022/06/05 16:51:46;;;;;;;;;7.67;7.67;;;;;25.08;48.92;101082.41;5098487;27;45389;-74
2022/06/05 16:54:15;;;;;;;;;6.75;6.75;;;;;25.21;48.76;101122.88;5100120;27;45372;-74
2022/06/05 16:57:08;;;;;;;;;5.75;5.75;;;;;25.16;49.07;101120.41;5098184;27;47363;-73
2022/06/05 16:59:37;;;;;;;;;7.00;6.50;;;;;25.09;48.83;101124.38;5097607;27;45547;-75
2022/06/05 17:02:17;;;;;;;;;7.33;7.33;;;;;25.00;48.69;101124.84;5100033;27;45489;-73
2022/06/05 17:05:12;;;;;;;;;6.00;6.00;;;;;24.89;49.23;101122.72;5121129;27;45320;-73
2022/06/05 17:07:50;;;;;;;;;7.00;7.00;;;;;24.80;48.02;101124.06;5092117;27;45383;-73
2022/06/05 17:10:24;;;;;;;;;8.00;8.00;;;;;24.72;48.70;101126.25;5099120;27;45462;-72
2022/06/05 17:13:01;;;;;;;;;8.00;8.00;;;;;24.52;48.39;101104.03;5098649;27;45373;-75
2022/06/05 17:15:27;;;;;;;;;6.33;6.33;;;;;24.57;49.09;101119.88;5099161;27;45515;-73
2022/06/05 17:18:21;;;;;;;;;7.00;6.67;;;;;24.44;49.11;101108.91;5098269;27;46003;-73
2022/06/05 17:20:56;;;;;;;;;8.00;8.00;;;;;24.38;49.50;101100.31;5098462;27;45351;-74
2022/06/05 17:23:27;;;;;;;;;6.00;6.00;;;;;24.39;49.16;101112.72;5098314;27;45224;-74
2022/06/05 17:26:18;;;;;;;;;7.33;7.33;;;;;24.27;49.81;101107.03;5114465;27;45389;-73
2022/06/05 17:28:59;;;;;;;;;5.67;4.33;;;;;24.19;50.36;101113.72;5099325;27;45524;-72
2022/06/05 17:31:46;;;;;;;;;6.33;6.33;;;;;24.05;49.82;101109.03;5098874;27;45821;-74